createdAt,value
2016-04-07T00:00:18.291Z,62.15
2016-04-07T00:01:18.074Z,62.05
2016-04-07T00:02:18.077Z,62.15
2016-04-07T00:03:18.298Z,62.24
2016-04-07T00:04:18.114Z,62.15
2016-04-07T00:05:18.116Z,61.96
2016-04-07T00:06:18.103Z,62.24
2016-04-07T00:07:18.106Z,62.15
2016-04-07T00:08:18.344Z,62.24
2016-04-07T00:09:18.127Z,61.86
2016-04-07T00:10:18.349Z,62.34
2016-04-07T00:11:18.133Z,62.24
2016-04-07T00:12:18.120Z,62.15
2016-04-07T00:13:18.107Z,62.05
2016-04-07T00:14:18.125Z,62.24
2016-04-07T00:15:17.674Z,62.34
2016-04-07T00:16:18.139Z,62.53
2016-04-07T00:17:18.233Z,62.91
2016-04-07T00:18:18.233Z,62.91
2016-04-07T00:19:18.280Z,62.72
2016-04-07T00:20:18.327Z,62.81
2016-04-07T00:21:18.561Z,62.91
2016-04-07T00:22:18.377Z,62.53
2016-04-07T00:23:18.442Z,62.53
2016-04-07T00:24:18.413Z,62.62
2016-04-07T00:25:18.447Z,62.62
2016-04-07T00:26:18.663Z,63.26
2016-04-07T00:27:18.468Z,62.91
2016-04-07T00:28:18.492Z,63.1
2016-04-07T00:29:18.486Z,63.29
2016-04-07T00:30:18.493Z,63.35
2016-04-07T00:31:18.500Z,63.48
2016-04-07T00:32:18.521Z,63.29
2016-04-07T00:33:18.509Z,63.01
2016-04-07T00:34:18.545Z,63.35
2016-04-07T00:35:18.534Z,63.26
2016-04-07T00:36:18.554Z,63.01
2016-04-07T00:38:18.717Z,63.29
2016-04-07T00:39:18.736Z,63.73
2016-04-07T00:40:18.536Z,63.39
2016-04-07T00:41:18.587Z,63.86
2016-04-07T00:42:18.527Z,63.64
2016-04-07T00:43:18.546Z,63.57
2016-04-07T00:44:18.549Z,63.76
2016-04-07T00:45:18.551Z,63.39
2016-04-07T00:46:18.540Z,63.54
2016-04-07T00:47:18.745Z,63.48
2016-04-07T00:48:18.559Z,63.64
2016-04-07T00:49:18.562Z,63.64
2016-04-07T00:50:18.987Z,63.35
2016-04-07T00:51:18.990Z,63.73
2016-04-07T00:52:18.805Z,63.64
2016-04-07T00:53:18.589Z,63.64
2016-04-07T00:54:18.983Z,63.73
2016-04-07T00:55:19.001Z,63.45
2016-04-07T00:56:18.113Z,63.57
2016-04-07T00:57:18.616Z,63.64
2016-04-07T00:58:18.587Z,63.45
2016-04-07T00:59:18.589Z,63.83
2016-04-07T01:00:18.999Z,63.54
2016-04-07T01:01:18.580Z,63.86
2016-04-07T01:02:18.598Z,63.83
2016-04-07T01:03:18.616Z,63.54
2016-04-07T01:04:32.697Z,63.64
2016-04-07T01:05:18.591Z,63.54
2016-04-07T01:06:18.609Z,63.54
2016-04-07T01:07:18.596Z,63.54
2016-04-07T01:08:18.677Z,64.11
2016-04-07T01:09:18.617Z,64.31
2016-04-07T01:10:18.838Z,64.4
2016-04-07T01:11:18.825Z,64.21
2016-04-07T01:12:18.844Z,64.11
2016-04-07T01:13:18.612Z,64.02
2016-04-07T01:14:18.646Z,64.21
2016-04-07T01:15:18.633Z,64.5
2016-04-07T01:16:18.620Z,63.92
2016-04-07T01:17:18.825Z,64.11
2016-04-07T01:18:18.875Z,64.31
2016-04-07T01:19:18.643Z,64.4
2016-04-07T01:21:18.665Z,64.31
2016-04-07T01:22:18.651Z,64.4
2016-04-07T01:23:18.654Z,64.11
2016-04-07T01:24:18.672Z,64.02
2016-04-07T01:25:18.644Z,64.5
2016-04-07T01:26:18.897Z,64.31
2016-04-07T01:27:18.650Z,64.4
2016-04-07T01:28:18.652Z,64.5
2016-04-07T01:29:18.655Z,64.97
2016-04-07T01:30:18.876Z,65.06
2016-04-07T01:31:18.660Z,64.5
2016-04-07T01:32:18.663Z,64.97
2016-04-07T01:33:18.666Z,65.06
2016-04-07T01:34:18.668Z,64.87
2016-04-07T01:35:18.671Z,65.25
2016-04-07T01:37:18.692Z,65.25
2016-04-07T01:38:18.680Z,65.16
2016-04-07T01:39:18.682Z,65.45
2016-04-07T01:40:18.716Z,65.16
2016-04-07T01:41:18.687Z,64.97
2016-04-07T01:42:18.690Z,65.25
2016-04-07T01:43:18.693Z,65.35
2016-04-07T01:44:18.899Z,65.35
2016-04-07T01:45:18.698Z,65.45
2016-04-07T01:46:18.701Z,65.06
2016-04-07T01:47:18.703Z,65.16
2016-04-07T01:48:18.893Z,64.97
2016-04-07T01:49:18.709Z,65.16
2016-04-07T01:50:18.712Z,65.16
2016-04-07T01:51:18.714Z,65.06
2016-04-07T01:52:18.920Z,65.25
2016-04-07T01:53:18.720Z,65.16
2016-04-07T01:54:18.722Z,64.78
2016-04-07T01:55:18.709Z,65.64
2016-04-07T01:56:18.712Z,65.35
2016-04-07T01:57:18.714Z,65.45
2016-04-07T01:58:18.733Z,65.16
2016-04-07T01:59:18.719Z,65.73
2016-04-07T02:00:18.722Z,65.16
2016-04-07T02:01:19.381Z,66.02
2016-04-07T02:02:18.275Z,65.54
2016-04-07T02:03:18.730Z,65.25
2016-04-07T02:04:18.749Z,65.54
2016-04-07T02:05:18.736Z,65.25
2016-04-07T02:06:18.941Z,65.45
2016-04-07T02:07:18.944Z,65.25
2016-04-07T02:08:18.744Z,65.54
2016-04-07T02:09:18.763Z,65.45
2016-04-07T02:10:18.750Z,65.35
2016-04-07T02:11:18.752Z,65.64
2016-04-07T02:12:18.754Z,65.35
2016-04-07T02:13:18.758Z,65.64
2016-04-07T02:14:18.979Z,65.64
2016-04-07T02:15:18.763Z,65.73
2016-04-07T02:16:18.782Z,65.45
2016-04-07T02:17:19.159Z,65.64
2016-04-07T02:18:19.005Z,65.54
2016-04-07T02:19:18.805Z,65.35
2016-04-07T02:20:18.792Z,65.35
2016-04-07T02:21:18.779Z,65.54
2016-04-07T02:22:18.782Z,65.35
2016-04-07T02:23:19.190Z,65.64
2016-04-07T02:24:18.787Z,65.35
2016-04-07T02:25:18.790Z,65.35
2016-04-07T02:26:18.793Z,65.54
2016-04-07T02:27:18.779Z,65.35
2016-04-07T02:28:19.017Z,65.45
2016-04-07T02:29:18.817Z,65.54
2016-04-07T02:30:18.804Z,65.25
2016-04-07T02:31:18.806Z,65.45
2016-04-07T02:32:18.824Z,65.45
2016-04-07T02:33:18.795Z,65.45
2016-04-07T02:34:18.798Z,65.16
2016-04-07T02:35:18.833Z,65.54
2016-04-07T02:36:18.820Z,65.16
2016-04-07T02:37:18.838Z,64.97
2016-04-07T02:38:18.824Z,64.97
2016-04-07T02:39:18.811Z,64.97
2016-04-07T02:40:18.830Z,65.1
2016-04-07T02:41:18.863Z,65.29
2016-04-07T02:42:18.835Z,64.78
2016-04-07T02:43:18.822Z,65
2016-04-07T02:44:18.825Z,65.19
2016-04-07T02:45:18.827Z,65.38
2016-04-07T02:46:18.846Z,65.1
2016-04-07T02:47:18.849Z,64.72
2016-04-07T02:48:18.852Z,65.1
2016-04-07T02:49:18.854Z,64.9
2016-04-07T02:50:19.279Z,64.62
2016-04-07T02:51:18.876Z,64.81
2016-04-07T02:52:18.878Z,64.24
2016-04-07T02:53:18.865Z,64.34
2016-04-07T02:54:18.868Z,64.9
2016-04-07T02:55:18.887Z,64.05
2016-04-07T02:56:18.873Z,64.24
2016-04-07T02:57:19.064Z,64.15
2016-04-07T02:58:18.409Z,64.05
2016-04-07T02:59:18.897Z,64.05
2016-04-07T03:00:18.884Z,64.53
2016-04-07T03:02:18.889Z,64.34
2016-04-07T03:03:18.876Z,64.34
2016-04-07T03:04:18.895Z,64.34
2016-04-07T03:05:18.882Z,64.15
2016-04-07T03:06:18.931Z,63.39
2016-04-07T03:07:18.950Z,64.15
2016-04-07T03:08:18.890Z,63.76
2016-04-07T03:09:18.892Z,63.57
2016-04-07T03:10:18.911Z,63.86
2016-04-07T03:11:18.914Z,63.42
2016-04-07T03:12:18.917Z,63.8
2016-04-07T03:13:18.918Z,63.7
2016-04-07T03:14:18.921Z,63.51
2016-04-07T03:15:18.940Z,63.89
2016-04-07T03:16:18.927Z,63.8
2016-04-07T03:17:19.132Z,63.89
2016-04-07T03:18:18.932Z,63.6
2016-04-07T03:19:18.934Z,63.42
2016-04-07T03:20:18.938Z,63.89
2016-04-07T03:21:18.956Z,63.7
2016-04-07T03:22:18.943Z,63.51
2016-04-07T03:23:18.945Z,63.42
2016-04-07T03:24:19.276Z,63.8
2016-04-07T03:25:18.967Z,63.8
2016-04-07T03:26:18.970Z,63.89
2016-04-07T03:27:19.003Z,63.6
2016-04-07T03:28:18.990Z,63.89
2016-04-07T03:29:19.181Z,63.89
2016-04-07T03:30:18.980Z,63.99
2016-04-07T03:31:19.014Z,63.23
2016-04-07T03:32:18.986Z,63.23
2016-04-07T03:33:19.004Z,63.13
2016-04-07T03:34:19.053Z,63.42
2016-04-07T03:35:19.009Z,63.32
2016-04-07T03:36:19.200Z,63.13
2016-04-07T03:37:19.000Z,63.13
2016-04-07T03:38:19.252Z,62.85
2016-04-07T03:39:19.020Z,62.94
2016-04-07T03:40:19.023Z,62.85
2016-04-07T03:41:19.041Z,62.94
2016-04-07T03:42:19.013Z,62.75
2016-04-07T03:43:19.046Z,62.65
2016-04-07T03:44:19.034Z,63.32
2016-04-07T03:45:19.036Z,62.85
2016-04-07T03:46:19.242Z,62.46
2016-04-07T03:47:19.245Z,62.94
2016-04-07T03:50:19.049Z,63.51
2016-04-07T03:51:19.052Z,62.65
2016-04-07T03:52:19.070Z,62.46
2016-04-07T03:54:19.264Z,62.94
2016-04-07T03:55:33.360Z,62.56
2016-04-07T03:56:19.097Z,62.56
2016-04-07T03:57:19.084Z,62.94
2016-04-07T03:58:19.103Z,63.32
2016-04-07T03:59:19.120Z,63.45
2016-04-07T04:00:19.123Z,63.32
2016-04-07T04:01:19.329Z,63.45
2016-04-07T04:02:19.128Z,63.04
2016-04-07T04:03:18.866Z,63.45
2016-04-07T04:04:19.103Z,62.97
2016-04-07T04:05:19.122Z,62.68
2016-04-07T04:06:19.124Z,62.88
2016-04-07T04:07:19.127Z,62.78
2016-04-07T04:08:19.130Z,62.78
2016-04-07T04:09:19.336Z,62.78
2016-04-07T04:10:19.338Z,62.68
2016-04-07T04:11:19.138Z,62.78
2016-04-07T04:12:19.141Z,63.07
2016-04-07T04:13:19.143Z,62.97
2016-04-07T04:14:19.146Z,62.4
2016-04-07T04:15:19.164Z,62.97
2016-04-07T04:16:19.166Z,62.68
2016-04-07T04:17:19.169Z,62.97
2016-04-07T04:18:19.157Z,62.4
2016-04-07T04:19:19.175Z,62.3
2016-04-07T04:20:19.177Z,62.3
2016-04-07T04:21:19.383Z,62.3
2016-04-07T04:22:19.402Z,62.3
2016-04-07T04:23:19.185Z,62.02
2016-04-07T04:24:19.204Z,62.21
2016-04-07T04:25:19.207Z,62.02
2016-04-07T04:26:19.193Z,62.49
2016-04-07T04:27:19.196Z,62.3
2016-04-07T04:28:19.215Z,62.3
2016-04-07T04:29:19.218Z,62.21
2016-04-07T04:30:33.516Z,62.3
2016-04-07T04:31:19.425Z,62.21
2016-04-07T04:32:19.272Z,62.21
2016-04-07T04:33:19.243Z,62.3
2016-04-07T04:34:18.778Z,62.3
2016-04-07T04:35:19.233Z,62.4
2016-04-07T04:36:19.236Z,62.4
2016-04-07T04:37:19.285Z,62.3
2016-04-07T04:38:19.256Z,62.4
2016-04-07T04:39:19.259Z,62.49
2016-04-07T04:40:19.262Z,62.02
2016-04-07T04:41:19.265Z,61.93
2016-04-07T04:42:19.471Z,62.12
2016-04-07T04:43:19.269Z,61.64
2016-04-07T04:44:19.272Z,61.83
2016-04-07T04:45:19.275Z,62.3
2016-04-07T04:46:19.278Z,61.73
2016-04-07T04:47:19.296Z,61.83
2016-04-07T04:48:19.299Z,61.83
2016-04-07T04:49:19.286Z,61.93
2016-04-07T04:50:19.305Z,61.73
2016-04-07T04:51:19.307Z,61.93
2016-04-07T04:52:19.310Z,62.15
2016-04-07T04:53:19.313Z,61.64
2016-04-07T04:54:19.316Z,61.86
2016-04-07T04:55:19.318Z,61.76
2016-04-07T04:56:19.571Z,62.05
2016-04-07T04:57:19.340Z,61.96
2016-04-07T04:58:19.342Z,61.48
2016-04-07T04:59:19.563Z,61.96
2016-04-07T05:00:19.362Z,61.96
2016-04-07T05:01:19.365Z,61.67
2016-04-07T05:02:19.368Z,61.67
2016-04-07T05:03:19.387Z,61.96
2016-04-07T05:05:19.423Z,61.48
2016-04-07T05:06:19.379Z,61.48
2016-04-07T05:07:19.382Z,61.57
2016-04-07T05:08:19.400Z,61.76
2016-04-07T05:09:19.387Z,61.76
2016-04-07T05:10:19.405Z,61.67
2016-04-07T05:11:19.424Z,61.57
2016-04-07T05:12:19.661Z,61.67
2016-04-07T05:13:19.413Z,61.76
2016-04-07T05:14:19.479Z,61.76
2016-04-07T05:15:19.419Z,61.29
2016-04-07T05:16:19.422Z,61.67
2016-04-07T05:17:19.190Z,61.29
2016-04-07T05:18:19.443Z,61.38
2016-04-07T05:19:19.289Z,61.41
2016-04-07T05:20:19.479Z,61.8
2016-04-07T05:21:19.466Z,61
2016-04-07T05:22:33.766Z,61
2016-04-07T05:23:19.518Z,61.13
2016-04-07T05:24:19.474Z,61.13
2016-04-07T05:25:19.023Z,61.41
2016-04-07T05:26:19.745Z,61.41
2016-04-07T05:27:19.498Z,61.22
2016-04-07T05:28:19.501Z,61.51
2016-04-07T05:29:19.691Z,60.94
2016-04-07T05:30:19.506Z,60.75
2016-04-07T05:31:18.759Z,61.22
2016-04-07T05:32:19.511Z,61.32
2016-04-07T05:33:19.592Z,61.22
2016-04-07T05:34:19.517Z,61.22
2016-04-07T05:35:19.535Z,61.6
2016-04-07T05:36:19.537Z,61.13
2016-04-07T05:37:19.556Z,61.04
2016-04-07T05:38:19.950Z,61.32
2016-04-07T05:39:19.687Z,60.94
2016-04-07T05:40:19.564Z,61.13
2016-04-07T05:41:19.567Z,61.07
2016-04-07T05:42:19.600Z,61.16
2016-04-07T05:43:19.572Z,61.16
2016-04-07T05:44:19.575Z,60.68
2016-04-07T05:45:19.594Z,60.21
2016-04-07T05:46:19.596Z,60.39
2016-04-07T05:47:19.599Z,60.58
2016-04-07T05:48:19.617Z,60.58
2016-04-07T05:49:19.605Z,60.58
2016-04-07T05:50:19.622Z,60.3
2016-04-07T05:51:19.625Z,60.21
2016-04-07T05:52:20.050Z,60.49
2016-04-07T05:53:19.646Z,60.02
2016-04-07T05:54:19.930Z,60.3
2016-04-07T05:55:19.668Z,60.11
2016-04-07T05:56:19.671Z,60.11
2016-04-07T05:57:19.657Z,60.21
2016-04-07T05:58:19.675Z,60.21
2016-04-07T05:59:19.678Z,60.49
2016-04-07T06:00:33.806Z,60.21
2016-04-07T06:01:20.089Z,60.3
2016-04-07T06:02:19.889Z,60.39
2016-04-07T06:03:19.704Z,60.21
2016-04-07T06:04:19.723Z,60.21
2016-04-07T06:05:19.725Z,60.3
2016-04-07T06:06:19.743Z,60.02
2016-04-07T06:07:19.745Z,60.02
2016-04-07T06:08:19.753Z,59.63
2016-04-07T06:09:19.663Z,60.02
2016-04-07T06:10:19.775Z,60.3
2016-04-07T06:11:19.778Z,60.3
2016-04-07T06:13:19.783Z,59.92
2016-04-07T06:14:20.005Z,59.92
2016-04-07T06:16:19.791Z,59.56
2016-04-07T06:18:20.030Z,59.19
2016-04-07T06:19:19.815Z,59.28
2016-04-07T06:20:19.818Z,59.28
2016-04-07T06:21:20.274Z,59.19
2016-04-07T06:22:19.823Z,59.38
2016-04-07T06:23:19.841Z,59.38
2016-04-07T06:24:19.984Z,58.9
2016-04-07T06:25:19.862Z,59.09
2016-04-07T06:26:19.864Z,59.19
2016-04-07T06:27:19.867Z,59.38
2016-04-07T06:28:19.870Z,59.47
2016-04-07T06:29:19.888Z,59.28
2016-04-07T06:30:19.890Z,59.38
2016-04-07T06:31:19.893Z,59.02
2016-04-07T06:32:19.928Z,59.12
2016-04-07T06:33:19.914Z,59.31
2016-04-07T06:34:19.917Z,59.31
2016-04-07T06:35:19.936Z,59.41
2016-04-07T06:36:19.939Z,59.41
2016-04-07T06:37:19.941Z,59.31
2016-04-07T06:38:19.944Z,59.02
2016-04-07T06:39:20.102Z,58.26
2016-04-07T06:40:19.965Z,58.83
2016-04-07T06:41:19.967Z,58.45
2016-04-07T06:42:19.986Z,58.54
2016-04-07T06:43:19.989Z,58.45
2016-04-07T06:44:19.992Z,58.73
2016-04-07T06:45:19.994Z,58
2016-04-07T06:46:20.012Z,57.81
2016-04-07T06:48:20.049Z,57.33
2016-04-07T06:49:20.052Z,57.33
2016-04-07T06:50:20.055Z,56.67
2016-04-07T06:51:20.057Z,56.47
2016-04-07T06:52:20.060Z,56.38
2016-04-07T06:53:20.687Z,55.8
2016-04-07T06:54:20.190Z,56.28
2016-04-07T06:55:20.082Z,56.47
2016-04-07T06:56:20.101Z,56.47
2016-04-07T06:57:20.120Z,56.18
2016-04-07T06:58:20.107Z,55.61
2016-04-07T06:59:20.173Z,55.8
2016-04-07T07:00:20.128Z,55.71
2016-04-07T07:01:20.131Z,55.42
2016-04-07T07:02:20.148Z,55.8
2016-04-07T07:03:20.151Z,55.26
2016-04-07T07:04:20.154Z,55.93
2016-04-07T07:05:20.173Z,55.64
2016-04-07T07:06:20.192Z,54.78
2016-04-07T07:07:20.209Z,53.92
2016-04-07T07:08:20.197Z,54.21
2016-04-07T07:09:20.262Z,54.02
2016-04-07T07:10:20.217Z,54.21
2016-04-07T07:11:20.220Z,54.02
2016-04-07T07:12:20.238Z,54.21
2016-04-07T07:13:34.538Z,53.66
2016-04-07T07:14:34.791Z,53.08
2016-04-07T07:15:20.262Z,52.13
2016-04-07T07:16:20.484Z,51.84
2016-04-07T07:17:20.330Z,51.46
2016-04-07T07:18:20.317Z,50.98
2016-04-07T07:19:20.304Z,50.5
2016-04-07T07:20:20.307Z,51.84
2016-04-07T07:21:20.357Z,51.56
2016-04-07T07:23:20.346Z,50.89
2016-04-07T07:24:20.348Z,51.84
2016-04-07T07:25:20.976Z,51.65
2016-04-07T07:26:20.791Z,51.65
2016-04-07T07:27:20.794Z,52.22
2016-04-07T07:28:22.094Z,51.75
2016-04-07T07:29:20.768Z,50.6
2016-04-07T07:30:21.115Z,50.79
2016-04-07T07:31:21.539Z,51.46
2016-04-07T07:32:21.121Z,51.93
2016-04-07T07:33:20.660Z,52.32
2016-04-07T07:34:20.443Z,50.79
2016-04-07T07:35:20.649Z,51.36
2016-04-07T07:36:21.043Z,51.65
2016-04-07T07:37:20.733Z,51.56
2016-04-07T07:38:20.830Z,51.46
2016-04-07T07:39:20.900Z,50.79
2016-04-07T07:40:20.606Z,50.89
2016-04-07T07:41:20.514Z,50.41
2016-04-07T07:42:20.564Z,50.31
2016-04-07T07:43:21.051Z,49.35
2016-04-07T07:44:20.569Z,49.64
2016-04-07T07:45:21.103Z,50.12
2016-04-07T07:46:21.075Z,50.02
2016-04-07T07:47:20.734Z,50.41
2016-04-07T07:48:20.628Z,49.35
2016-04-07T07:49:20.692Z,50.31
2016-04-07T07:50:20.586Z,50.41
2016-04-07T07:51:20.682Z,50.79
2016-04-07T07:52:20.607Z,50.31
2016-04-07T07:53:20.734Z,50.41
2016-04-07T07:54:21.377Z,50.79
2016-04-07T07:55:21.568Z,50.21
2016-04-07T07:56:21.429Z,50.7
2016-04-07T07:57:21.198Z,51.01
2016-04-07T07:58:20.966Z,49.57
2016-04-07T07:59:21.032Z,49.48
2016-04-07T08:00:20.535Z,49.07
2016-04-07T08:01:21.396Z,48.8
2016-04-07T08:02:20.743Z,49.09
2016-04-07T08:03:20.980Z,49.35
2016-04-07T08:04:21.264Z,49.35
2016-04-07T08:05:21.423Z,48.88
2016-04-07T08:06:20.753Z,48.49
2016-04-07T08:07:20.756Z,49.07
2016-04-07T08:08:20.759Z,49.16
2016-04-07T08:09:20.778Z,48.78
2016-04-07T08:10:21.062Z,48.78
2016-04-07T08:11:21.095Z,48.88
2016-04-07T08:12:20.895Z,48.49
2016-04-07T08:13:20.913Z,48.88
2016-04-07T08:14:20.962Z,48.59
2016-04-07T08:15:20.840Z,48.59
2016-04-07T08:16:21.015Z,48.49
2016-04-07T08:17:20.987Z,47.82
2016-04-07T08:18:20.989Z,48.21
2016-04-07T08:19:21.070Z,48.97
2016-04-07T08:20:20.994Z,49.26
2016-04-07T08:21:21.575Z,48.88
2016-04-07T08:22:21.031Z,49.35
2016-04-07T08:23:20.752Z,48.49
2016-04-07T08:24:21.271Z,49.55
2016-04-07T08:25:21.226Z,48.21
2016-04-07T08:26:21.119Z,47.92
2016-04-07T08:27:20.997Z,47.92
2016-04-07T08:28:21.079Z,47.16
2016-04-07T08:29:21.050Z,47.82
2016-04-07T08:30:21.366Z,47.44
2016-04-07T08:31:21.165Z,47.73
2016-04-07T08:32:21.761Z,48.49
2016-04-07T08:33:21.154Z,48.59
2016-04-07T08:34:21.173Z,47.63
2016-04-07T08:35:21.331Z,47.03
2016-04-07T08:36:21.132Z,47.71
2016-04-07T08:37:21.167Z,47.06
2016-04-07T08:38:21.263Z,47.71
2016-04-07T08:39:21.234Z,48.47
2016-04-07T08:40:21.283Z,48.75
2016-04-07T08:41:21.146Z,49.33
2016-04-07T08:42:21.210Z,49.43
2016-04-07T08:43:21.135Z,49.52
2016-04-07T08:44:21.216Z,49.62
2016-04-07T08:45:21.172Z,50.57
2016-04-07T08:46:21.550Z,50.38
2016-04-07T08:47:21.193Z,50.86
2016-04-07T08:48:21.196Z,50.95
2016-04-07T08:49:21.214Z,50.95
2016-04-07T08:51:21.328Z,50.67
2016-04-07T08:52:21.487Z,49.8
2016-04-07T08:53:35.271Z,49.8
2016-04-07T08:54:21.337Z,49.33
2016-04-07T08:55:21.573Z,47.42
2016-04-07T08:56:21.217Z,47.8
2016-04-07T08:57:21.376Z,47.89
2016-04-07T08:58:21.378Z,48.38
2016-04-07T08:59:21.428Z,51.24
2016-04-07T09:00:21.384Z,50.38
2016-04-07T09:01:21.387Z,50.19
2016-04-07T09:02:21.296Z,48.47
2016-04-07T09:03:21.658Z,47.92
2016-04-07T09:04:21.270Z,47.34
2016-04-07T09:05:21.366Z,47.44
2016-04-07T09:06:21.416Z,46.87
2016-04-07T09:07:21.371Z,47.16
2016-04-07T09:08:21.436Z,46.3
2016-04-07T09:09:21.361Z,46.39
2016-04-07T09:10:21.552Z,47.06
2016-04-07T09:11:21.648Z,47.44
2016-04-07T09:12:21.792Z,46.1
2016-04-07T09:13:21.716Z,45.84
2016-04-07T09:14:21.407Z,45.84
2016-04-07T09:15:21.127Z,46.2
2016-04-07T09:16:21.521Z,46.12
2016-04-07T09:17:21.665Z,45.94
2016-04-07T09:18:21.526Z,44.59
2016-04-07T09:19:21.576Z,44.5
2016-04-07T09:20:21.703Z,45.53
2016-04-07T09:21:21.488Z,44.21
2016-04-07T09:22:21.702Z,43.23
2016-04-07T09:23:21.569Z,44
2016-04-07T09:24:21.811Z,44.59
2016-04-07T09:25:21.850Z,43.83
2016-04-07T09:26:22.217Z,44.69
2016-04-07T09:27:22.069Z,44.4
2016-04-07T09:28:21.867Z,45.26
2016-04-07T09:29:22.039Z,45.07
2016-04-07T09:30:36.148Z,45.84
2016-04-07T09:31:22.211Z,45.94
2016-04-07T09:32:21.893Z,46.03
2016-04-07T09:33:21.963Z,44.79
2016-04-07T09:34:21.985Z,44.98
2016-04-07T09:35:22.008Z,45.17
2016-04-07T09:36:21.828Z,45.94
2016-04-07T09:37:22.021Z,46.03
2016-04-07T09:38:21.979Z,46.12
2016-04-07T09:39:22.078Z,46.98
2016-04-07T09:40:21.942Z,46.89
2016-04-07T09:41:22.071Z,44.59
2016-04-07T09:42:21.638Z,44.02
2016-04-07T09:43:22.297Z,44.88
2016-04-07T09:44:21.988Z,45.74
2016-04-07T09:45:22.304Z,46.31
2016-04-07T09:46:22.182Z,46.12
2016-04-07T09:47:22.185Z,44.69
2016-04-07T09:48:22.157Z,44.98
2016-04-07T09:49:22.191Z,45.26
2016-04-07T09:50:21.991Z,45.84
2016-04-07T09:51:22.227Z,45.91
2016-04-07T09:52:22.152Z,47.06
2016-04-07T09:53:22.154Z,47.25
2016-04-07T09:54:22.094Z,46.87
2016-04-07T09:55:22.097Z,47.63
2016-04-07T09:56:22.366Z,47.82
2016-04-07T09:57:22.102Z,48.39
2016-04-07T09:58:22.199Z,48.49
2016-04-07T09:59:22.218Z,48.78
2016-04-07T10:00:22.251Z,48.97
2016-04-07T10:01:22.207Z,48.68
2016-04-07T10:02:22.209Z,48.39
2016-04-07T10:03:22.165Z,47.73
2016-04-07T10:04:22.309Z,47.92
2016-04-07T10:05:22.374Z,47.85
2016-04-07T10:06:22.284Z,47.44
2016-04-07T10:07:22.255Z,46.96
2016-04-07T10:08:22.256Z,46.3
2016-04-07T10:09:22.166Z,45.94
2016-04-07T10:10:22.059Z,46.12
2016-04-07T10:11:22.406Z,46.03
2016-04-07T10:12:22.283Z,45.26
2016-04-07T10:13:22.286Z,45.26
2016-04-07T10:14:22.680Z,44.21
2016-04-07T10:15:22.385Z,44.59
2016-04-07T10:16:22.233Z,44.79
2016-04-07T10:17:22.313Z,45.65
2016-04-07T10:18:22.238Z,45.45
2016-04-07T10:19:22.334Z,46.31
2016-04-07T10:20:22.289Z,46.12
2016-04-07T10:21:22.261Z,45.94
2016-04-07T10:22:22.404Z,46.12
2016-04-07T10:24:22.332Z,46.22
2016-04-07T10:25:22.335Z,46.12
2016-04-07T10:26:22.338Z,45.55
2016-04-07T10:27:22.340Z,45.17
2016-04-07T10:28:22.343Z,46.03
2016-04-07T10:29:22.454Z,45.84
2016-04-07T10:30:23.066Z,45.84
2016-04-07T10:31:22.490Z,45.94
2016-04-07T10:32:22.821Z,46.2
2016-04-07T10:33:22.668Z,46.1
2016-04-07T10:34:22.390Z,45.72
2016-04-07T10:36:22.411Z,46.48
2016-04-07T10:37:22.414Z,46.3
2016-04-07T10:38:22.603Z,45.91
2016-04-07T10:39:22.669Z,45.81
2016-04-07T10:40:22.561Z,46.48
2016-04-07T10:41:22.674Z,46.51
2016-04-07T10:42:22.598Z,46.7
2016-04-07T10:43:22.726Z,46.12
2016-04-07T10:44:22.651Z,47.08
2016-04-07T10:45:22.967Z,45.36
2016-04-07T10:46:22.703Z,45.74
2016-04-07T10:47:22.581Z,45.94
2016-04-07T10:48:22.600Z,45.45
2016-04-07T10:49:22.633Z,44.98
2016-04-07T10:50:22.652Z,45.36
2016-04-07T10:51:22.983Z,45.76
2016-04-07T10:52:22.720Z,45.94
2016-04-07T10:53:22.738Z,45.84
2016-04-07T10:54:22.803Z,45
2016-04-07T10:55:22.665Z,45.29
2016-04-07T10:56:22.824Z,45.67
2016-04-07T10:57:22.780Z,44.43
2016-04-07T10:58:22.782Z,45.76
2016-04-07T10:59:22.785Z,45.48
2016-04-07T11:00:22.787Z,45.67
2016-04-07T11:02:22.902Z,43.66
2016-04-07T11:03:22.734Z,43.47
2016-04-07T11:04:22.940Z,43.47
2016-04-07T11:05:22.895Z,43.08
2016-04-07T11:06:22.913Z,44.04
2016-04-07T11:07:22.744Z,43.85
2016-04-07T11:08:22.965Z,45.19
2016-04-07T11:09:22.889Z,44.9
2016-04-07T11:10:23.033Z,45.09
2016-04-07T11:11:23.051Z,45.29
2016-04-07T11:12:22.961Z,46.15
2016-04-07T11:13:23.057Z,45.57
2016-04-07T11:14:36.935Z,45.38
2016-04-07T11:15:23.000Z,45.29
2016-04-07T11:16:22.909Z,45.57
2016-04-07T11:17:23.083Z,45.57
2016-04-07T11:18:23.133Z,45.65
2016-04-07T11:19:23.058Z,46.03
2016-04-07T11:20:22.998Z,46.12
2016-04-07T11:21:23.126Z,46.8
2016-04-07T11:23:22.944Z,48.13
2016-04-07T11:24:23.586Z,49
2016-04-07T11:25:23.355Z,49.38
2016-04-07T11:26:22.904Z,51.58
2016-04-07T11:27:22.891Z,51.75
2016-04-07T11:28:22.910Z,52.89
2016-04-07T11:29:22.475Z,52.51
2016-04-07T11:30:23.135Z,53.08
2016-04-07T11:31:22.934Z,53.16
2016-04-07T11:32:22.952Z,54.02
2016-04-07T11:33:22.955Z,54.78
2016-04-07T11:34:22.988Z,54.02
2016-04-07T11:35:22.976Z,54.97
2016-04-07T11:36:22.979Z,54.21
2016-04-07T11:37:22.996Z,54.3
2016-04-07T11:38:22.999Z,56.31
2016-04-07T11:39:23.002Z,56.09
2016-04-07T11:40:23.021Z,55.9
2016-04-07T11:41:23.070Z,56.09
2016-04-07T11:42:23.245Z,56.47
2016-04-07T11:43:23.045Z,56.28
2016-04-07T11:44:23.047Z,56.57
2016-04-07T11:45:23.065Z,56.95
2016-04-07T11:46:23.068Z,57.24
2016-04-07T11:47:23.086Z,57.71
2016-04-07T11:48:23.105Z,57.24
2016-04-07T11:49:23.076Z,58
2016-04-07T11:50:23.094Z,57.53
2016-04-07T11:51:23.097Z,57.33
2016-04-07T11:52:23.131Z,57.62
2016-04-07T11:53:23.118Z,57.24
2016-04-07T11:54:23.136Z,57.9
2016-04-07T11:55:23.811Z,57.62
2016-04-07T11:56:23.173Z,57.53
2016-04-07T11:57:23.144Z,57.62
2016-04-07T11:58:23.397Z,57.53
2016-04-07T11:59:23.385Z,58
2016-04-07T12:00:23.183Z,57.36
2016-04-07T12:01:23.358Z,57.46
2016-04-07T12:02:23.252Z,57.75
2016-04-07T12:03:23.379Z,56.88
2016-04-07T12:04:23.429Z,56.88
2016-04-07T12:06:23.371Z,57.17
2016-04-07T12:07:23.312Z,56.4
2016-04-07T12:08:23.674Z,56.21
2016-04-07T12:09:23.536Z,55.64
2016-04-07T12:10:23.632Z,55.07
2016-04-07T12:11:23.478Z,55.16
2016-04-07T12:12:23.419Z,55.26
2016-04-07T12:13:23.343Z,54.97
2016-04-07T12:14:24.018Z,55.16
2016-04-07T12:15:23.428Z,53.8
2016-04-07T12:16:23.320Z,53.7
2016-04-07T12:17:23.323Z,53.32
2016-04-07T12:18:23.356Z,52.36
2016-04-07T12:19:23.344Z,52.55
2016-04-07T12:20:23.347Z,52.17
2016-04-07T12:21:23.349Z,52.55
2016-04-07T12:22:23.430Z,52.53
2016-04-07T12:23:24.854Z,52.62
2016-04-07T12:24:23.435Z,53.1
2016-04-07T12:25:23.235Z,52.91
2016-04-07T12:26:23.800Z,52.81
2016-04-07T12:27:23.397Z,53.96
2016-04-07T12:28:23.602Z,53.74
2016-04-07T12:29:23.418Z,54.13
2016-04-07T12:30:23.733Z,54.5
2016-04-07T12:31:23.626Z,54.99
2016-04-07T12:32:23.738Z,54.32
2016-04-07T12:33:23.240Z,54.99
2016-04-07T12:34:23.649Z,56.32
2016-04-07T12:35:23.621Z,55.82
2016-04-07T12:36:23.468Z,56.38
2016-04-07T12:37:23.815Z,56.67
2016-04-07T12:38:23.567Z,56.87
2016-04-07T12:39:23.507Z,57.24
2016-04-07T12:40:23.775Z,58.8
2016-04-07T12:41:23.700Z,57.63
2016-04-07T12:42:23.765Z,57.94
2016-04-07T12:43:23.643Z,57.94
2016-04-07T12:44:23.677Z,57.94
2016-04-07T12:45:23.664Z,57.37
2016-04-07T12:46:23.792Z,57.94
2016-04-07T12:47:23.653Z,57.28
2016-04-07T12:48:23.656Z,56.6
2016-04-07T12:49:23.971Z,56.8
2016-04-07T12:50:23.708Z,56.32
2016-04-07T12:51:23.774Z,56.51
2016-04-07T12:52:23.713Z,56.41
2016-04-07T12:53:23.655Z,56.41
2016-04-07T12:54:23.672Z,55.87
2016-04-07T12:55:23.925Z,55.2
2016-04-07T12:56:23.712Z,56.06
2016-04-07T12:57:23.730Z,55.58
2016-04-07T12:58:23.983Z,54.34
2016-04-07T12:59:23.923Z,53.67
2016-04-07T13:01:23.647Z,54.18
2016-04-07T13:02:23.853Z,53
2016-04-07T13:03:23.730Z,52.24
2016-04-07T13:04:23.765Z,52.84
2016-04-07T13:05:23.752Z,53.22
2016-04-07T13:06:23.879Z,53.13
2016-04-07T13:07:23.851Z,53.99
2016-04-07T13:08:23.885Z,53.13
2016-04-07T13:09:23.981Z,52.08
2016-04-07T13:10:24.156Z,52.46
2016-04-07T13:11:23.956Z,52.75
2016-04-07T13:12:23.989Z,52.55
2016-04-07T13:13:23.915Z,51.5
2016-04-07T13:14:23.495Z,52.36
2016-04-07T13:15:23.732Z,52.58
2016-04-07T13:16:23.797Z,52.46